Time;durP1;ratioP1;P1;durP2;ratioP2;P2;SDS_P1;SDS_P2;PMS_P1;PMS_P2;Temp;Humidity;BMP_temperature;BMP_pressure;BME280_temperature;BME280_humidity;BME280_pressure;Samples;Min_cycle;Max_cycle;Signal;HPM_P1;HPM_P2
2022/12/21 02:17:10;;;;;;;8.43;4.30;;;;;;;0.15;100.00;101337.72;1790369;78;28867;-79
2022/12/21 02:20:25;;;;;;;5.95;3.27;;;;;;;0.20;100.00;101337.98;1727314;80;21026;-79
2022/12/21 02:23:20;;;;;;;6.83;3.17;;;;;;;0.28;100.00;101335.69;1752265;80;21027;-79
2022/12/21 02:26:47;;;;;;;7.62;3.33;;;;;;;0.35;100.00;101333.91;1753359;80;21620;-80
2022/12/21 02:29:50;;;;;;;7.87;3.08;;;;;;;0.36;100.00;101334.22;1751837;80;21018;-79
2022/12/21 02:32:56;;;;;;;6.33;2.60;;;;;;;0.36;100.00;101339.08;1740762;80;21516;-79
2022/12/21 02:36:08;;;;;;;5.62;3.00;;;;;;;0.42;100.00;101336.98;1758392;79;21444;-79
2022/12/21 02:39:18;;;;;;;5.15;3.12;;;;;;;0.42;100.00;101342.37;1721384;79;21576;-79
2022/12/21 02:44:12;;;;;;;9.18;3.10;;;;;;;0.42;100.00;101333.44;1756118;79;21017;-79
2022/12/21 02:45:12;;;;;;;8.10;3.15;;;;;;;0.42;100.00;101336.98;1792243;77;21024;-79
2022/12/21 02:48:05;;;;;;;6.42;3.22;;;;;;;0.42;100.00;101339.67;1804039;77;21469;-79
2022/12/21 02:50:53;;;;;;;11.05;3.52;;;;;;;0.42;100.00;101334.30;1799795;77;21085;-79
2022/12/21 02:53:38;;;;;;;9.28;4.05;;;;;;;0.41;100.00;101321.03;1792840;77;20994;-79
2022/12/21 02:56:23;;;;;;;9.73;3.42;;;;;;;0.42;100.00;101328.06;1793777;77;21013;-79
2022/12/21 02:59:09;;;;;;;5.62;3.00;;;;;;;0.41;100.00;101328.58;1806597;77;21384;-79
2022/12/21 03:02:21;;;;;;;5.47;2.90;;;;;;;0.43;100.00;101336.47;1796059;77;21014;-79
2022/12/21 03:05:25;;;;;;;9.18;3.20;;;;;;;0.41;100.00;101333.13;1785457;79;21503;-79
2022/12/21 03:08:26;;;;;;;7.95;3.25;;;;;;;0.40;100.00;101329.62;1784025;79;21556;-79
2022/12/21 03:11:11;;;;;;;10.38;3.75;;;;;;;0.39;100.00;101323.91;1749972;80;21453;-79
2022/12/21 03:14:01;;;;;;;8.30;3.52;;;;;;;0.36;100.00;101330.19;1770585;79;21411;-78
2022/12/21 03:16:52;;;;;;;6.80;3.60;;;;;;;0.34;100.00;101334.39;1775044;79;21018;-79
2022/12/21 03:20:05;;;;;;;9.93;3.77;;;;;;;0.33;100.00;101341.33;1758561;79;21072;-79
2022/12/21 03:23:19;;;;;;;7.10;2.90;;;;;;;0.31;100.00;101344.20;1809809;77;20985;-79
2022/12/21 03:26:15;;;;;;;9.08;3.47;;;;;;;0.28;100.00;101331.66;1775430;80;20993;-79
2022/12/21 03:28:59;;;;;;;8.40;3.92;;;;;;;0.24;100.00;101333.05;1733631;80;20994;-79
2022/12/21 03:31:49;;;;;;;7.22;4.12;;;;;;;0.18;100.00;101334.65;1740899;80;21038;-79
2022/12/21 03:34:36;;;;;;;8.60;3.62;;;;;;;0.20;100.00;101320.52;1747800;80;21101;-79
2022/12/21 03:37:27;;;;;;;7.85;3.40;;;;;;;0.19;100.00;101321.52;1691276;82;21553;-79
2022/12/21 03:40:19;;;;;;;9.53;4.12;;;;;;;0.20;100.00;101331.27;1704696;81;21010;-79
2022/12/21 03:43:11;;;;;;;;;;;;;;;0.18;100.00;101326.06;1779091;78;21021;-79
2022/12/21 03:46:03;;;;;;;7.15;3.37;;;;;;;0.17;100.00;101319.52;1771349;79;20149;-79
2022/12/21 03:48:59;;;;;;;9.83;3.85;;;;;;;0.17;100.00;101318.18;1771571;78;21360;-79
2022/12/21 03:51:51;;;;;;;9.50;3.40;;;;;;;0.18;100.00;101314.48;1732412;80;21817;-79
2022/12/21 03:54:56;;;;;;;6.53;3.70;;;;;;;0.17;100.00;101324.41;1728181;80;21507;-80
2022/12/21 03:57:41;;;;;;;6.62;3.25;;;;;;;0.18;100.00;101319.86;1740838;81;21485;-79
2022/12/21 04:00:26;;;;;;;8.38;4.28;;;;;;;0.15;100.00;101326.45;1721111;80;21087;-80
2022/12/21 04:03:19;;;;;;;10.25;3.92;;;;;;;0.14;100.00;101329.31;1730880;80;21044;-79
2022/12/21 04:06:16;;;;;;;8.25;3.05;;;;;;;0.09;100.00;101319.13;1734896;80;21097;-79
2022/12/21 04:09:03;;;;;;;7.97;3.37;;;;;;;0.08;100.00;101315.30;1732760;80;20887;-79
2022/12/21 04:14:51;;;;;;;8.15;3.55;;;;;;;-0.02;100.00;101318.29;1748993;80;21057;-79
2022/12/21 04:17:36;;;;;;;9.95;3.92;;;;;;;-0.08;100.00;101314.48;1713745;82;21028;-79
2022/12/21 04:20:23;;;;;;;10.30;4.03;;;;;;;-0.10;100.00;101318.37;1720080;80;20994;-79
2022/12/21 04:29:14;;;;;;;11.22;3.67;;;;;;;-0.17;100.00;101314.28;1769219;78;21034;-79
2022/12/21 04:31:59;;;;;;;8.78;3.72;;;;;;;-0.19;100.00;101309.61;1801135;78;20995;-79
2022/12/21 04:34:44;;;;;;;13.13;4.35;;;;;;;-0.21;100.00;101304.92;1762205;78;21516;-80
2022/12/21 04:37:32;;;;;;;7.92;3.92;;;;;;;-0.22;100.00;101309.98;1784004;79;21587;-79
2022/12/21 04:40:16;;;;;;;12.18;4.55;;;;;;;-0.22;100.00;101300.58;1771808;78;21388;-79
2022/12/21 04:43:03;;;;;;;8.40;3.90;;;;;;;-0.18;100.00;101309.09;1770652;78;20982;-79
2022/12/21 04:45:47;;;;;;;10.65;4.78;;;;;;;-0.14;100.00;101303.67;1782708;78;21620;-79
2022/12/21 04:48:32;;;;;;;13.98;4.53;;;;;;;-0.07;100.00;101309.45;1800909;78;21033;-80
2022/12/21 04:51:19;;;;;;;10.08;4.58;;;;;;;-0.05;100.00;101307.41;1796083;78;20975;-80
2022/12/21 04:54:04;;;;;;;8.08;3.98;;;;;;;-0.03;100.00;101305.34;1794549;78;21037;-80
2022/12/21 04:56:49;;;;;;;12.18;4.37;;;;;;;-0.01;100.00;101301.13;1781863;78;20977;-79
2022/12/21 04:59:33;;;;;;;10.15;4.10;;;;;;;0.03;100.00;101306.98;1780390;78;21048;-80
2022/12/21 05:02:18;;;;;;;8.38;3.20;;;;;;;0.06;100.00;101314.66;1724905;80;21030;-80
2022/12/21 05:05:03;;;;;;;11.88;4.87;;;;;;;0.10;100.00;101320.81;1718894;81;21529;-80
2022/12/21 05:07:48;;;;;;;10.08;4.20;;;;;;;0.13;100.00;101333.05;1715825;81;20974;-80
2022/12/21 05:10:34;;;;;;;11.70;4.10;;;;;;;0.14;100.00;101323.94;1723620;80;20990;-80
2022/12/21 05:13:19;;;;;;;12.73;4.08;;;;;;;0.19;100.00;101322.86;1698315;82;21038;-80
2022/12/21 05:16:05;;;;;;;9.58;3.80;;;;;;;0.20;100.00;101324.55;1732749;81;21003;-80
2022/12/21 05:18:52;;;;;;;10.38;4.15;;;;;;;0.21;100.00;101316.79;1744847;79;20974;-80
2022/12/21 05:21:37;;;;;;;9.05;3.60;;;;;;;0.21;100.00;101317.62;1750746;79;21078;-81
2022/12/21 05:24:22;;;;;;;10.53;3.87;;;;;;;0.21;100.00;101314.10;1756423;79;21018;-80
2022/12/21 05:27:06;;;;;;;9.75;4.20;;;;;;;0.25;100.00;101310.02;1740291;80;21081;-80
2022/12/21 05:29:50;;;;;;;5.90;3.35;;;;;;;0.27;100.00;101324.08;1736937;79;20974;-80
2022/12/21 05:32:35;;;;;;;8.90;3.92;;;;;;;0.28;100.00;101313.66;1759292;79;21085;-81
2022/12/21 05:35:20;;;;;;;10.80;4.00;;;;;;;0.30;100.00;101310.28;1744766;81;21079;-81
2022/12/21 05:38:06;;;;;;;12.40;3.95;;;;;;;0.39;100.00;101309.62;1734987;81;21013;-80
2022/12/21 05:40:51;;;;;;;9.38;4.25;;;;;;;0.41;100.00;101307.07;1764122;80;21049;-80
2022/12/21 05:43:36;;;;;;;11.05;3.62;;;;;;;0.42;100.00;101314.13;1754219;81;21010;-80
2022/12/21 05:46:21;;;;;;;9.83;4.12;;;;;;;0.43;100.00;101316.30;1747173;79;21467;-80
2022/12/21 05:49:06;;;;;;;11.70;4.22;;;;;;;0.48;100.00;101317.08;1734915;81;20994;-80
2022/12/21 05:51:50;;;;;;;8.93;3.65;;;;;;;0.52;100.00;101321.03;1727644;81;21018;-80
2022/12/21 05:54:35;;;;;;;9.88;4.33;;;;;;;0.54;100.00;101318.98;1737733;80;21044;-80
2022/12/21 05:57:20;;;;;;;12.65;4.15;;;;;;;0.56;100.00;101318.28;1739719;81;21010;-81
2022/12/21 08:06:12;;;;;;;11.93;3.90;;;;;;;1.41;100.00;101293.58;1824984;77;29758;-79
2022/12/21 08:08:57;;;;;;;9.90;4.58;;;;;;;1.52;100.00;101295.73;1787832;79;21009;-79
2022/12/21 08:11:41;;;;;;;8.20;4.25;;;;;;;1.70;100.00;101283.89;1807070;78;20990;-79
2022/12/21 08:14:26;;;;;;;10.10;4.10;;;;;;;1.92;100.00;101281.08;1783104;79;21054;-79
2022/12/21 08:17:11;;;;;;;9.08;4.35;;;;;;;2.05;100.00;101282.49;1783657;80;20974;-79
2022/12/21 08:19:56;;;;;;;11.68;4.97;;;;;;;2.18;100.00;101273.61;1735690;80;21013;-80
2022/12/21 08:22:41;;;;;;;11.38;4.22;;;;;;;2.32;100.00;101280.66;1726378;82;21037;-79
2022/12/21 08:25:26;;;;;;;9.88;4.50;;;;;;;2.44;100.00;101276.86;1730517;82;21836;-79
2022/12/21 08:28:12;;;;;;;11.60;4.37;;;;;;;2.58;100.00;101276.36;1733354;82;20998;-79
2022/12/21 08:31:09;;;;;;;15.03;5.60;;;;;;;2.70;100.00;101269.31;1737769;81;21013;-79
2022/12/21 08:33:54;;;;;;;11.95;5.72;;;;;;;2.83;100.00;101278.45;1744198;82;20997;-79
2022/12/21 08:36:38;;;;;;;10.50;4.72;;;;;;;2.90;100.00;101272.01;1726418;82;21061;-79
2022/12/21 08:39:23;;;;;;;8.58;4.67;;;;;;;2.94;100.00;101281.36;1730304;80;21581;-79
2022/12/21 08:42:08;;;;;;;11.12;4.75;;;;;;;2.97;100.00;101279.59;1719989;83;21473;-79
2022/12/21 08:44:52;;;;;;;10.40;4.67;;;;;;;3.01;100.00;101280.81;1734720;81;21084;-79
2022/12/21 08:47:37;;;;;;;13.40;5.08;;;;;;;3.08;100.00;101280.81;1732755;81;21514;-79
2022/12/21 08:50:22;;;;;;;10.43;5.00;;;;;;;3.11;100.00;101272.81;1735982;81;21024;-79
2022/12/21 08:53:07;;;;;;;9.50;4.80;;;;;;;3.15;100.00;101276.77;1732696;81;21049;-79
2022/12/21 08:55:51;;;;;;;13.72;4.97;;;;;;;3.18;100.00;101274.98;1732272;81;21048;-79
2022/12/21 08:58:36;;;;;;;12.70;5.25;;;;;;;3.22;100.00;101277.06;1725250;80;20981;-79
2022/12/21 09:01:22;;;;;;;10.75;5.30;;;;;;;3.29;100.00;101274.85;1724264;81;21028;-79
2022/12/21 09:04:06;;;;;;;12.25;5.58;;;;;;;3.35;100.00;101276.73;1717661;81;21069;-79
2022/12/21 09:06:51;;;;;;;9.65;4.70;;;;;;;3.40;100.00;101278.27;1753295;79;21034;-79
2022/12/21 09:09:36;;;;;;;11.12;5.55;;;;;;;3.49;100.00;101288.31;1730036;82;21496;-79
2022/12/21 09:12:21;;;;;;;7.92;4.70;;;;;;;3.54;100.00;101279.08;1737074;81;20995;-80
2022/12/21 09:15:07;;;;;;;12.37;4.70;;;;;;;3.60;100.00;101275.52;1729945;81;21841;-80
2022/12/21 09:17:51;;;;;;;10.35;4.50;;;;;;;3.65;100.00;101281.10;1731002;81;21024;-79
2022/12/21 09:20:37;;;;;;;10.45;5.40;;;;;;;3.69;100.00;101278.30;1746141;81;20995;-80
2022/12/21 09:23:21;;;;;;;14.85;5.42;;;;;;;3.75;100.00;101273.90;1730237;81;21023;-80
2022/12/21 09:26:07;;;;;;;9.73;5.05;;;;;;;3.76;100.00;101275.55;1710845;82;21012;-80
2022/12/21 09:28:52;;;;;;;10.70;4.78;;;;;;;3.78;100.00;101276.98;1756154;81;21034;-80
2022/12/21 09:31:37;;;;;;;10.30;4.37;;;;;;;3.85;100.00;101272.91;1741535;81;21087;-80
2022/12/21 09:34:22;;;;;;;11.53;5.08;;;;;;;3.94;100.00;101272.16;1744277;81;21861;-80
2022/12/21 09:37:07;;;;;;;9.80;4.83;;;;;;;4.01;100.00;101273.78;1742635;81;20989;-80
2022/12/21 09:39:53;;;;;;;14.20;5.60;;;;;;;4.09;100.00;101265.94;1756230;81;21015;-80
2022/12/21 09:43:07;;;;;;;10.03;5.20;;;;;;;4.22;100.00;101268.56;1764054;81;21477;-80
2022/12/21 09:45:59;;;;;;;11.73;6.08;;;;;;;4.29;100.00;101266.64;1766867;79;21046;-80
2022/12/21 09:48:53;;;;;;;13.50;5.50;;;;;;;4.34;100.00;101263.30;1744766;79;21042;-80
2022/12/21 09:51:40;;;;;;;12.70;5.58;;;;;;;4.36;100.00;101251.73;1719079;82;20907;-80
2022/12/21 09:58:39;;;;;;;11.45;4.97;;;;;;;4.48;100.00;101247.27;1707544;83;21031;-88
2022/12/21 10:01:45;;;;;;;10.70;5.10;;;;;;;4.59;100.00;101243.02;1644231;85;21042;-87
2022/12/21 10:04:50;;;;;;;11.97;5.25;;;;;;;4.65;100.00;101229.97;1664506;84;21501;-89
2022/12/21 10:08:17;;;;;;;12.73;4.47;;;;;;;4.72;100.00;101223.98;1692883;84;21028;-88
2022/12/21 10:11:30;;;;;;;11.68;5.25;;;;;;;4.80;100.00;101217.95;1683406;83;21611;-88
2022/12/21 10:14:45;;;;;;;11.53;4.83;;;;;;;4.87;100.00;101211.95;1664719;84;21066;-87
2022/12/21 10:17:41;;;;;;;9.85;5.90;;;;;;;4.90;100.00;101212.88;1679086;84;21019;-89
2022/12/21 10:20:44;;;;;;;13.18;5.60;;;;;;;4.91;100.00;101218.59;1666324;85;21072;-89
2022/12/21 10:23:34;;;;;;;10.75;4.30;;;;;;;4.89;100.00;101212.56;1669197;85;21043;-88
2022/12/21 10:34:16;;;;;;;16.97;6.95;;;;;;;4.93;100.00;101199.70;1809646;77;23782;-87
2022/12/21 10:37:04;;;;;;;14.68;6.35;;;;;;;4.89;100.00;101203.08;1763216;79;21009;-87
2022/12/21 10:39:56;;;;;;;12.90;5.90;;;;;;;4.89;100.00;101197.66;1744182;82;20967;-87
2022/12/21 10:42:46;;;;;;;15.93;6.17;;;;;;;4.83;100.00;101197.22;1759920;80;21072;-87
2022/12/21 10:45:31;;;;;;;12.33;5.53;;;;;;;4.81;100.00;101194.72;1765498;80;20990;-87
2022/12/21 10:48:17;;;;;;;10.50;4.83;;;;;;;4.82;100.00;101190.13;1754326;79;21057;-88
2022/12/21 10:51:32;;;;;;;12.68;5.33;;;;;;;4.83;100.00;101194.52;1761365;81;21544;-88
2022/12/21 10:54:26;;;;;;;12.37;5.62;;;;;;;4.84;100.00;101197.51;1765867;81;20986;-87
2022/12/21 10:57:11;;;;;;;9.75;5.40;;;;;;;4.82;100.00;101195.55;1739852;79;20986;-88
2022/12/21 10:59:56;;;;;;;10.30;4.60;;;;;;;4.80;100.00;101182.75;1685024;83;21042;-87
2022/12/21 11:02:44;;;;;;;11.20;5.20;;;;;;;4.79;100.00;101185.98;1676614;85;21578;-88
2022/12/21 11:05:37;;;;;;;9.55;4.50;;;;;;;4.78;100.00;101184.88;1683716;83;21834;-88
2022/12/21 11:08:32;;;;;;;11.57;4.97;;;;;;;4.76;100.00;101181.56;1736625;81;20991;-89
2022/12/21 11:11:35;;;;;;;11.95;5.15;;;;;;;4.73;100.00;101180.95;1738696;81;21058;-87
2022/12/21 11:14:22;;;;;;;12.78;5.25;;;;;;;4.74;100.00;101179.06;1739029;81;21519;-88
2022/12/21 11:17:29;;;;;;;12.65;5.53;;;;;;;4.73;100.00;101174.17;1674494;84;21014;-87
2022/12/21 11:20:19;;;;;;;14.75;5.05;;;;;;;4.73;100.00;101166.05;1682451;84;21083;-88
2022/12/21 11:23:04;;;;;;;9.30;4.62;;;;;;;4.73;100.00;101168.77;1749544;81;21012;-87
2022/12/21 11:25:49;;;;;;;12.95;5.95;;;;;;;4.74;100.00;101164.99;1712476;82;20970;-86
2022/12/21 11:28:33;;;;;;;12.50;5.10;;;;;;;4.80;100.00;101157.02;1753444;80;20994;-89
2022/12/21 11:31:19;;;;;;;10.82;4.92;;;;;;;4.79;100.00;101149.43;1705201;82;20995;-88
2022/12/21 11:34:03;;;;;;;11.65;4.58;;;;;;;4.81;100.00;101156.81;1772940;79;21042;-87
2022/12/21 11:36:58;;;;;;;9.83;4.55;;;;;;;4.83;100.00;101153.89;1750374;79;21018;-89
2022/12/21 11:39:43;;;;;;;13.78;4.75;;;;;;;4.86;100.00;101148.02;1753027;80;21042;-87
2022/12/21 14:06:40;;;;;;;19.73;7.75;;;;;;;1.11;100.00;101153.81;1842944;77;29782;-85
2022/12/21 14:09:59;;;;;;;21.75;8.65;;;;;;;1.05;100.00;101160.02;1773644;79;21013;-86
2022/12/21 14:12:59;;;;;;;14.60;7.67;;;;;;;1.07;100.00;101174.94;1753797;80;21038;-85
2022/12/21 14:15:59;;;;;;;16.42;7.30;;;;;;;1.06;100.00;101169.73;1760109;80;20983;-88
2022/12/21 14:18:44;;;;;;;19.92;8.35;;;;;;;1.06;100.00;101164.36;1761183;80;21470;-86
2022/12/21 14:21:31;;;;;;;17.05;7.00;;;;;;;1.09;100.00;101166.67;1759555;80;21007;-86
2022/12/21 14:24:22;;;;;;;15.80;6.92;;;;;;;1.10;100.00;101168.31;1762170;80;21043;-87
2022/12/21 14:27:18;;;;;;;19.25;7.08;;;;;;;1.10;100.00;101172.36;1749798;80;21057;-86
2022/12/21 14:30:15;;;;;;;11.40;5.80;;;;;;;1.07;100.00;101175.45;1747906;80;21002;-87
2022/12/21 14:33:07;;;;;;;16.52;6.78;;;;;;;1.10;100.00;101175.57;1752819;80;21038;-87
2022/12/21 14:36:21;;;;;;;11.00;5.67;;;;;;;1.09;100.00;101177.44;1744086;80;21045;-87
2022/12/21 14:39:13;;;;;;;15.98;7.20;;;;;;;1.06;100.00;101177.81;1760351;80;20995;-86
2022/12/21 14:42:33;;;;;;;13.73;6.03;;;;;;;1.07;100.00;101167.38;1758924;80;21351;-86
2022/12/21 14:45:41;;;;;;;13.70;5.87;;;;;;;1.05;100.00;101171.60;1751280;80;21430;-88
2022/12/21 14:48:32;;;;;;;15.85;6.92;;;;;;;1.01;100.00;101177.58;1756038;79;21013;-87
2022/12/21 14:51:37;;;;;;;22.32;9.53;;;;;;;0.91;100.00;101182.49;1711348;82;21061;-87
2022/12/21 14:54:38;;;;;;;17.55;8.08;;;;;;;0.84;100.00;101176.57;1702971;83;21088;-86
2022/12/21 14:57:41;;;;;;;19.07;8.75;;;;;;;0.73;100.00;101169.03;1715057;82;20987;-87
2022/12/21 15:00:28;;;;;;;18.40;9.25;;;;;;;0.63;100.00;101173.94;1767813;79;20995;-86
2022/12/21 15:03:18;;;;;;;24.07;9.85;;;;;;;0.53;100.00;101165.37;1756583;80;21022;-87
2022/12/21 15:06:04;;;;;;;25.32;10.98;;;;;;;0.43;100.00;101162.51;1772832;80;20984;-87
2022/12/21 15:08:49;;;;;;;22.90;9.90;;;;;;;0.32;100.00;101168.44;1771935;80;20995;-86
2022/12/21 15:11:33;;;;;;;23.40;10.55;;;;;;;0.20;100.00;101149.83;1771216;79;20991;-86
2022/12/21 15:14:43;;;;;;;54.25;23.15;;;;;;;0.12;100.00;101148.08;1763148;80;20987;-87
2022/12/21 15:17:31;;;;;;;22.60;10.53;;;;;;;0.05;100.00;101155.28;1722048;83;20983;-90
2022/12/21 15:20:46;;;;;;;18.98;8.30;;;;;;;-0.05;100.00;101148.88;1742553;80;21022;-90
2022/12/21 15:23:33;;;;;;;18.55;7.72;;;;;;;-0.12;100.00;101139.92;1749363;80;21046;-90
2022/12/21 15:26:25;;;;;;;15.08;7.30;;;;;;;-0.21;100.00;101145.09;1772373;80;21220;-89
2022/12/21 15:29:27;;;;;;;13.37;6.77;;;;;;;-0.29;100.00;101147.91;1774113;79;21398;-92
2022/12/21 15:32:31;;;;;;;16.55;7.20;;;;;;;-0.35;100.00;101144.11;1750823;80;21480;-90
2022/12/21 15:35:30;;;;;;;17.00;7.40;;;;;;;-0.45;100.00;101144.42;1772892;80;21026;-92
2022/12/21 15:38:29;;;;;;;11.97;6.05;;;;;;;-0.51;100.00;101137.14;1697254;82;21082;-90
2022/12/21 15:41:43;;;;;;;11.80;5.03;;;;;;;-0.54;100.00;101124.62;1735921;82;21003;-89
2022/12/21 15:44:42;;;;;;;17.25;6.33;;;;;;;-0.56;100.00;101132.84;1707945;83;21000;-91
2022/12/21 15:47:48;;;;;;;11.55;5.25;;;;;;;-0.59;100.00;101128.35;1697726;83;20915;-91
2022/12/21 15:50:38;;;;;;;13.93;6.05;;;;;;;-0.61;100.00;101121.85;1752537;79;20991;-82
2022/12/21 15:53:23;;;;;;;13.15;6.08;;;;;;;-0.61;100.00;101132.59;1724405;82;21058;-83
2022/12/21 15:56:10;;;;;;;12.63;5.87;;;;;;;-0.58;100.00;101134.06;1756658;79;21019;-82
2022/12/21 15:58:55;;;;;;;14.90;6.50;;;;;;;-0.52;100.00;101131.46;1752173;80;21508;-82
2022/12/21 16:01:40;;;;;;;24.87;8.85;;;;;;;-0.50;100.00;101121.34;1752616;80;21425;-82
2022/12/21 16:04:26;;;;;;;21.70;6.30;;;;;;;-0.51;100.00;101123.72;1741669;80;20994;-83
2022/12/21 16:07:15;;;;;;;14.90;6.00;;;;;;;-0.51;100.00;101120.20;1727105;81;21035;-83
2022/12/21 16:10:05;;;;;;;13.72;6.20;;;;;;;-0.50;100.00;101124.54;1726795;81;21050;-83
2022/12/21 16:12:56;;;;;;;12.25;5.45;;;;;;;-0.51;100.00;101129.59;1739818;81;20980;-83
2022/12/21 16:15:42;;;;;;;16.02;6.35;;;;;;;-0.49;100.00;101135.10;1753386;79;21374;-83
2022/12/21 16:18:36;;;;;;;12.25;5.40;;;;;;;-0.44;100.00;101136.70;1766717;80;21480;-82
2022/12/21 16:21:32;;;;;;;16.40;6.95;;;;;;;-0.40;100.00;101136.31;1711264;82;21552;-82
2022/12/21 16:24:17;;;;;;;16.52;6.10;;;;;;;-0.36;100.00;101134.92;1698558;82;20934;-83
2022/12/21 16:27:02;;;;;;;14.40;5.53;;;;;;;-0.37;100.00;101130.55;1745592;80;21019;-82
2022/12/21 16:29:53;;;;;;;17.17;5.87;;;;;;;-0.36;100.00;101137.61;1715721;81;21212;-83
2022/12/21 16:32:38;;;;;;;9.88;5.25;;;;;;;-0.38;100.00;101129.73;1735531;80;21046;-82
2022/12/21 16:35:27;;;;;;;13.83;6.03;;;;;;;-0.38;100.00;101118.16;1734911;81;21018;-82
2022/12/21 16:38:13;;;;;;;16.65;6.97;;;;;;;-0.42;100.00;101106.98;1735191;82;20978;-83
2022/12/21 16:40:57;;;;;;;13.80;5.95;;;;;;;-0.46;100.00;101107.86;1737053;80;20986;-83
2022/12/21 16:43:45;;;;;;;14.73;5.85;;;;;;;-0.49;100.00;101106.91;1737616;82;21053;-82
2022/12/21 16:46:44;;;;;;;13.83;5.95;;;;;;;-0.52;100.00;101104.61;1747140;78;20981;-82
2022/12/21 16:49:31;;;;;;;14.40;6.40;;;;;;;-0.53;100.00;101095.39;1754920;80;21436;-83
2022/12/21 16:52:45;;;;;;;19.20;7.22;;;;;;;-0.53;100.00;101087.34;1756854;80;20988;-83
2022/12/21 16:55:29;;;;;;;16.48;6.40;;;;;;;-0.53;100.00;101086.82;1736475;80;21001;-83
2022/12/21 16:58:16;;;;;;;16.07;6.53;;;;;;;-0.55;100.00;101079.98;1711543;82;21053;-83
2022/12/21 17:01:01;;;;;;;22.00;7.20;;;;;;;-0.56;100.00;101075.65;1714562;81;21053;-83
2022/12/21 17:03:45;;;;;;;14.53;6.33;;;;;;;-0.55;100.00;101075.44;1738532;80;21026;-83
2022/12/21 17:06:40;;;;;;;15.63;6.35;;;;;;;-0.54;100.00;101075.77;1737126;80;21007;-83
2022/12/21 20:04:05;;;;;;;18.45;6.33;;;;;;;-2.40;100.00;101043.73;1812375;77;29102;-86
2022/12/21 20:06:51;;;;;;;22.73;8.55;;;;;;;-2.40;100.00;101049.94;1731295;80;21009;-86
2022/12/21 20:09:36;;;;;;;34.98;11.28;;;;;;;-2.35;100.00;101042.68;1740691;80;21097;-86
2022/12/21 20:12:21;;;;;;;40.10;15.60;;;;;;;-2.23;100.00;101049.27;1733632;81;21003;-86
2022/12/21 20:15:16;;;;;;;42.88;15.05;;;;;;;-2.16;100.00;101054.23;1726653;80;21046;-85
2022/12/21 20:18:01;;;;;;;37.70;15.20;;;;;;;-2.12;100.00;101055.23;1722892;82;20994;-86
2022/12/21 20:20:46;;;;;;;33.28;13.18;;;;;;;-2.07;100.00;101056.86;1756431;80;21066;-86
2022/12/21 20:23:32;;;;;;;24.63;10.93;;;;;;;-2.05;100.00;101050.30;1672433;84;21081;-87
2022/12/21 20:26:22;;;;;;;23.18;9.45;;;;;;;-2.06;100.00;101041.09;1732624;80;21532;-87
2022/12/21 20:29:11;;;;;;;26.10;10.32;;;;;;;-2.09;100.00;101045.48;1715036;81;21006;-86
2022/12/21 20:31:57;;;;;;;16.48;7.58;;;;;;;-2.09;100.00;101044.15;1745173;80;21010;-87
2022/12/21 20:34:42;;;;;;;16.85;6.95;;;;;;;-2.13;100.00;101035.62;1722693;80;21036;-86
2022/12/21 20:37:27;;;;;;;19.90;8.25;;;;;;;-2.14;100.00;101041.19;1710798;82;21023;-87
2022/12/21 20:40:18;;;;;;;16.93;7.12;;;;;;;-2.14;100.00;101041.19;1756586;80;20998;-86
2022/12/21 20:46:05;;;;;;;18.37;7.12;;;;;;;-2.23;100.00;101024.34;1716454;81;21040;-86
2022/12/21 20:48:50;;;;;;;23.52;8.68;;;;;;;-2.29;100.00;101027.25;1736766;80;20971;-85
2022/12/21 20:51:34;;;;;;;20.48;8.20;;;;;;;-2.31;100.00;101028.45;1741267;81;20975;-87
2022/12/21 20:54:20;;;;;;;22.17;8.85;;;;;;;-2.32;100.00;101020.09;1699239;83;21120;-86
2022/12/21 20:57:04;;;;;;;21.57;8.98;;;;;;;-2.35;100.00;101014.57;1719856;81;21050;-85
2022/12/21 20:59:49;;;;;;;24.05;10.00;;;;;;;-2.38;100.00;101017.62;1751270;80;21046;-85
2022/12/21 21:02:35;;;;;;;19.90;8.80;;;;;;;-2.41;100.00;101016.65;1759085;80;21058;-84
2022/12/21 21:05:25;;;;;;;24.12;9.90;;;;;;;-2.41;100.00;101009.95;1756937;80;21054;-85
2022/12/21 21:08:15;;;;;;;25.77;10.45;;;;;;;-2.42;100.00;101012.31;1704320;82;20966;-84
2022/12/21 21:14:03;;;;;;;25.50;10.82;;;;;;;-2.46;100.00;101024.38;1722658;81;21696;-85
2022/12/21 21:16:48;;;;;;;20.15;9.50;;;;;;;-2.49;100.00;101017.55;1732989;80;20987;-84
2022/12/21 21:19:34;;;;;;;22.75;9.88;;;;;;;-2.51;100.00;101016.06;1741195;80;21438;-85
2022/12/21 21:25:37;;;;;;;19.82;7.75;;;;;;;-2.53;100.00;101007.38;1713818;82;21041;-85
2022/12/21 21:28:24;;;;;;;23.57;10.00;;;;;;;-2.51;100.00;101000.84;1705772;83;21029;-85
2022/12/21 21:31:11;;;;;;;22.52;10.30;;;;;;;-2.48;100.00;100996.97;1711371;82;21037;-85
2022/12/21 21:33:55;;;;;;;21.82;8.00;;;;;;;-2.49;100.00;100996.14;1712735;83;20975;-86
2022/12/21 21:36:45;;;;;;;23.32;9.65;;;;;;;-2.48;100.00;100990.27;1687652;84;20994;-85
2022/12/21 21:42:39;;;;;;;19.25;7.83;;;;;;;-2.38;100.00;100986.84;1703094;83;21070;-85
2022/12/21 21:45:24;;;;;;;18.60;8.00;;;;;;;-2.29;100.00;100980.41;1737336;81;21912;-86
2022/12/21 21:48:10;;;;;;;19.02;8.75;;;;;;;-2.20;100.00;100980.66;1737603;82;20963;-83
2022/12/21 21:50:54;;;;;;;18.80;7.95;;;;;;;-2.12;100.00;100982.93;1742152;81;20972;-84
2022/12/21 21:53:40;;;;;;;17.02;8.08;;;;;;;-2.06;100.00;100980.84;1716801;80;21020;-84
2022/12/21 21:56:39;;;;;;;16.23;7.05;;;;;;;-1.97;100.00;100974.39;1711168;83;21492;-84
2022/12/21 21:59:36;;;;;;;17.98;7.40;;;;;;;-1.89;100.00;100978.31;1729734;82;21005;-84
2022/12/21 22:02:33;;;;;;;18.50;7.50;;;;;;;-1.77;100.00;100967.97;1739158;80;20999;-84
2022/12/21 22:05:21;;;;;;;19.73;6.78;;;;;;;-1.63;100.00;100967.61;1703614;83;21006;-84
2022/12/21 22:08:05;;;;;;;18.73;7.17;;;;;;;-1.51;100.00;100972.82;1689854;83;20999;-84
2022/12/21 22:10:50;;;;;;;17.70;6.20;;;;;;;-1.43;100.00;100979.44;1691418;83;21035;-84
2022/12/21 22:13:34;;;;;;;19.42;7.22;;;;;;;-1.32;100.00;100966.88;1679504;83;21031;-84
2022/12/21 22:16:21;;;;;;;16.55;6.85;;;;;;;-1.20;100.00;100965.05;1686584;83;21027;-84
2022/12/21 22:43:54;;;;;;;30.12;10.08;;;;;;;-0.71;100.00;100940.16;1735508;81;20165;-84
2022/12/21 22:46:38;;;;;;;30.30;10.23;;;;;;;-0.72;100.00;100946.53;1753512;81;20948;-84
2022/12/21 22:49:23;;;;;;;27.75;10.75;;;;;;;-0.78;100.00;100942.77;1739077;81;20978;-84
2022/12/21 22:52:08;;;;;;;26.95;10.45;;;;;;;-0.82;100.00;100935.30;1753422;81;21587;-84
2022/12/21 22:54:52;;;;;;;28.05;11.15;;;;;;;-0.82;100.00;100942.00;1715006;81;20983;-84
2022/12/21 22:57:37;;;;;;;32.08;11.90;;;;;;;-0.80;100.00;100933.26;1697873;82;21059;-83
2022/12/21 23:00:21;;;;;;;28.38;10.00;;;;;;;-0.80;100.00;100928.71;1678132;84;20994;-83
2022/12/21 23:03:12;;;;;;;20.23;9.10;;;;;;;-0.84;100.00;100928.80;1687704;83;20969;-84
2022/12/21 23:05:57;;;;;;;18.87;7.92;;;;;;;-0.87;100.00;100925.99;1690507;83;21008;-84
2022/12/21 23:08:41;;;;;;;19.70;8.30;;;;;;;-0.88;100.00;100935.05;1687151;83;21051;-84
2022/12/21 23:11:39;;;;;;;18.10;6.60;;;;;;;-0.91;100.00;100926.05;1681541;83;21013;-83
2022/12/21 23:20:31;;;;;;;20.77;8.15;;;;;;;-0.93;100.00;100924.58;1681544;82;20154;-83
2022/12/21 23:29:22;;;;;;;;;;;;;;;-0.93;100.00;100917.36;1684594;82;21145;-83
2022/12/21 23:43:10;;;;;;;18.67;6.37;;;;;;;-0.85;100.00;100909.68;1666533;84;20976;-83
2022/12/21 23:44:14;;;;;;;13.30;6.87;;;;;;;-0.65;100.00;100899.11;1672029;83;21060;-83
